createdAt,value
2022-09-24T00:01:32.027Z,11.20
2022-09-24T00:04:05.101Z,12.90
2022-09-24T00:06:36.678Z,11.10
2022-09-24T00:09:04.614Z,11.00
2022-09-24T00:11:32.248Z,12.32
2022-09-24T00:14:00.183Z,9.70
2022-09-24T00:16:31.534Z,9.05
2022-09-24T00:18:59.217Z,9.65
2022-09-24T00:21:29.705Z,9.30
2022-09-24T00:23:59.229Z,10.65
2022-09-24T00:26:45.419Z,12.02
2022-09-24T00:29:15.802Z,10.77
2022-09-24T00:31:43.275Z,8.73
2022-09-24T00:34:10.834Z,11.85
2022-09-24T00:36:38.835Z,9.68
2022-09-24T00:39:06.914Z,9.60
2022-09-24T00:41:36.839Z,8.98
2022-09-24T00:44:42.538Z,10.95
2022-09-24T00:47:21.689Z,14.43
2022-09-24T00:49:50.365Z,14.90
2022-09-24T00:52:18.329Z,10.90
2022-09-24T00:54:46.342Z,10.20
2022-09-24T00:57:14.458Z,9.98
2022-09-24T00:59:43.925Z,10.82
2022-09-24T01:02:12.170Z,10.90
2022-09-24T01:04:39.420Z,8.65
2022-09-24T01:07:06.657Z,10.60
2022-09-24T01:09:34.686Z,8.05
2022-09-24T01:12:18.487Z,12.00
2022-09-24T01:15:36.944Z,10.82
2022-09-24T01:18:22.451Z,9.52
2022-09-24T01:20:52.789Z,9.43
2022-09-24T01:23:50.442Z,10.68
2022-09-24T01:26:28.521Z,14.27
2022-09-24T01:29:17.324Z,11.95
2022-09-24T01:32:12.638Z,11.90
2022-09-24T01:34:47.837Z,10.93
2022-09-24T01:37:18.257Z,10.32
2022-09-24T01:39:47.315Z,9.98
2022-09-24T01:42:15.723Z,10.60
2022-09-24T01:44:44.625Z,12.50
2022-09-24T01:47:23.546Z,11.80
2022-09-24T01:49:53.583Z,13.73
2022-09-24T01:52:26.601Z,13.43
2022-09-24T01:54:57.129Z,15.27
2022-09-24T01:57:30.217Z,12.85
2022-09-24T02:00:02.788Z,11.80
2022-09-24T02:02:45.503Z,13.50
2022-09-24T02:05:31.686Z,13.05
2022-09-24T02:08:08.849Z,15.43
2022-09-24T02:10:56.761Z,14.57
2022-09-24T02:13:26.867Z,13.65
2022-09-24T02:15:58.454Z,10.63
2022-09-24T02:18:33.239Z,13.35
2022-09-24T02:21:04.042Z,13.95
2022-09-24T02:23:33.737Z,11.95
2022-09-24T02:26:04.649Z,14.55
2022-09-24T02:28:34.272Z,11.27
2022-09-24T02:31:22.846Z,11.50
2022-09-24T02:34:10.647Z,10.90
2022-09-24T02:36:41.024Z,11.75
2022-09-24T02:39:08.541Z,11.13
2022-09-24T02:41:36.835Z,9.93
2022-09-24T02:44:04.060Z,11.45
2022-09-24T02:46:31.452Z,11.45
2022-09-24T02:48:58.743Z,10.00
2022-09-24T02:51:26.302Z,8.77
2022-09-24T02:53:53.522Z,10.75
2022-09-24T02:56:20.755Z,10.27
2022-09-24T02:58:47.995Z,11.00
2022-09-24T03:01:15.302Z,7.97
2022-09-24T03:03:42.546Z,8.63
2022-09-24T03:06:11.181Z,16.15
2022-09-24T03:08:38.385Z,10.18
2022-09-24T03:11:05.803Z,21.08
2022-09-24T03:13:33.030Z,11.32
2022-09-24T03:16:00.374Z,9.80
2022-09-24T03:18:27.563Z,9.05
2022-09-24T03:21:04.499Z,8.63
2022-09-24T03:23:31.902Z,15.95
2022-09-24T03:25:59.207Z,11.98
2022-09-24T03:28:26.883Z,7.80
2022-09-24T03:31:00.516Z,8.88
2022-09-24T03:33:44.237Z,8.23
2022-09-24T03:36:17.772Z,12.70
2022-09-24T03:38:46.380Z,9.07
2022-09-24T03:41:14.188Z,9.80
2022-09-24T03:43:41.830Z,9.40
2022-09-24T03:46:11.105Z,13.35
2022-09-24T03:48:40.038Z,8.80
2022-09-24T03:51:11.136Z,10.13
2022-09-24T03:53:38.955Z,10.37
2022-09-24T03:56:07.450Z,10.40
2022-09-24T03:58:39.268Z,9.23
2022-09-24T04:01:07.774Z,9.52
2022-09-24T04:03:36.043Z,11.85
2022-09-24T04:06:04.023Z,11.23
2022-09-24T04:08:31.784Z,9.02
2022-09-24T04:10:59.661Z,8.25
2022-09-24T04:13:26.902Z,9.13
2022-09-24T04:15:55.201Z,15.07
2022-09-24T04:18:22.737Z,11.68
2022-09-24T04:20:50.051Z,11.15
2022-09-24T04:23:17.292Z,7.35
2022-09-24T04:25:44.506Z,10.57
2022-09-24T04:28:12.247Z,8.30
2022-09-24T04:30:39.967Z,10.68
2022-09-24T04:33:07.787Z,9.32
2022-09-24T04:35:38.780Z,8.98
2022-09-24T04:38:07.028Z,9.65
2022-09-24T04:40:34.351Z,8.63
2022-09-24T04:43:03.375Z,9.52
2022-09-24T04:45:30.875Z,9.52
2022-09-24T04:47:58.360Z,9.60
2022-09-24T04:50:29.063Z,11.15
2022-09-24T04:52:56.463Z,10.68
2022-09-24T04:55:24.213Z,15.95
2022-09-24T04:57:51.861Z,9.85
2022-09-24T05:00:21.258Z,11.38
2022-09-24T05:02:55.618Z,9.07
2022-09-24T05:05:23.420Z,9.43
2022-09-24T05:07:51.596Z,9.57
2022-09-24T05:10:19.364Z,11.18
2022-09-24T05:12:46.658Z,11.63
2022-09-24T05:15:13.891Z,10.93
2022-09-24T05:17:41.277Z,13.43
2022-09-24T05:20:11.343Z,9.77
2022-09-24T05:22:46.528Z,7.90
2022-09-24T05:25:15.090Z,9.38
2022-09-24T05:27:53.777Z,8.52
2022-09-24T05:30:22.783Z,11.55
2022-09-24T05:32:52.398Z,12.27
2022-09-24T05:35:24.214Z,9.50
2022-09-24T05:37:53.832Z,11.57
2022-09-24T05:40:41.136Z,8.60
2022-09-24T05:43:08.688Z,12.00
2022-09-24T05:45:35.966Z,10.02
2022-09-24T05:48:03.408Z,8.48
2022-09-24T05:50:31.072Z,9.93
2022-09-24T05:52:58.677Z,11.70
2022-09-24T05:55:30.026Z,8.80
2022-09-24T05:58:10.871Z,9.48
2022-09-24T06:00:38.197Z,9.20
2022-09-24T06:03:16.834Z,9.10
2022-09-24T06:05:51.865Z,9.85
2022-09-24T06:08:21.093Z,11.13
2022-09-24T06:10:48.895Z,13.23
2022-09-24T06:13:21.181Z,14.57
2022-09-24T06:15:48.473Z,17.35
2022-09-24T06:18:16.055Z,11.85
2022-09-24T06:20:43.597Z,14.27
2022-09-24T06:23:11.058Z,10.00
2022-09-24T06:25:38.259Z,9.23
2022-09-24T06:28:05.501Z,8.57
2022-09-24T06:30:38.573Z,8.80
2022-09-24T06:33:08.824Z,8.30
2022-09-24T06:35:37.897Z,9.80
2022-09-24T06:38:06.515Z,10.75
2022-09-24T06:40:37.320Z,10.45
2022-09-24T06:43:09.803Z,10.90
2022-09-24T06:45:37.461Z,11.07
2022-09-24T06:48:05.991Z,11.27
2022-09-24T06:50:34.735Z,9.68
2022-09-24T06:53:06.760Z,9.93
2022-09-24T06:58:06.008Z,10.55
2022-09-24T07:00:34.506Z,9.68
2022-09-24T07:03:01.991Z,10.55
2022-09-24T07:05:29.287Z,14.10
2022-09-24T07:07:57.149Z,10.55
2022-09-24T07:10:25.391Z,9.40
2022-09-24T07:12:52.641Z,11.35
2022-09-24T07:15:20.246Z,12.15
2022-09-24T07:17:47.679Z,13.05
2022-09-24T07:20:14.978Z,9.98
2022-09-24T07:22:43.266Z,19.02
2022-09-24T07:25:12.115Z,11.63
2022-09-24T07:27:39.619Z,10.32
2022-09-24T07:30:09.822Z,13.02
2022-09-24T07:32:36.985Z,14.55
2022-09-24T07:35:04.902Z,9.45
2022-09-24T07:37:33.329Z,10.60
2022-09-24T07:40:01.016Z,10.05
2022-09-24T07:42:29.268Z,10.50
2022-09-24T07:45:01.180Z,11.75
2022-09-24T07:47:28.950Z,11.32
2022-09-24T07:49:56.331Z,10.25
2022-09-24T07:52:23.989Z,10.40
2022-09-24T07:54:52.416Z,12.35
2022-09-24T07:57:19.926Z,10.80
2022-09-24T07:59:49.503Z,12.95
2022-09-24T08:02:19.104Z,12.43
2022-09-24T08:04:46.729Z,10.93
2022-09-24T08:07:14.326Z,12.10
2022-09-24T08:09:41.819Z,11.27
2022-09-24T08:12:10.370Z,10.75
2022-09-24T08:14:38.362Z,12.60
2022-09-24T08:17:05.655Z,11.85
2022-09-24T08:19:33.393Z,11.82
2022-09-24T08:22:00.841Z,16.63
2022-09-24T08:24:29.076Z,11.65
2022-09-24T08:26:56.328Z,10.98
2022-09-24T08:29:23.584Z,11.63
2022-09-24T08:31:50.742Z,11.93
2022-09-24T08:34:19.223Z,15.95
2022-09-24T08:36:46.808Z,12.10
2022-09-24T08:39:15.427Z,11.43
2022-09-24T08:41:56.100Z,12.20
2022-09-24T08:44:50.580Z,13.00
2022-09-24T08:47:43.203Z,11.50
2022-09-24T08:50:21.592Z,10.80
2022-09-24T08:53:02.718Z,13.48
2022-09-24T08:55:35.879Z,12.60
2022-09-24T08:58:09.180Z,13.40
2022-09-24T09:01:00.687Z,13.75
2022-09-24T09:03:40.537Z,10.40
2022-09-24T09:06:16.661Z,11.13
2022-09-24T09:09:12.092Z,12.88
2022-09-24T09:11:41.809Z,15.88
2022-09-24T09:14:17.871Z,16.08
2022-09-24T09:17:32.626Z,12.80
2022-09-24T09:20:03.714Z,14.77
2022-09-24T09:22:41.354Z,15.27
2022-09-24T09:25:28.551Z,14.40
2022-09-24T09:28:04.925Z,13.30
2022-09-24T09:30:43.739Z,11.68
2022-09-24T09:33:30.785Z,10.43
2022-09-24T09:36:18.656Z,14.60
2022-09-24T09:39:18.439Z,11.65
2022-09-24T09:41:58.282Z,11.82
2022-09-24T09:44:29.066Z,14.20
2022-09-24T09:47:36.165Z,13.07
2022-09-24T09:50:35.941Z,16.40
2022-09-24T09:53:05.606Z,17.10
2022-09-24T09:55:36.390Z,13.15
2022-09-24T09:58:15.982Z,13.18
2022-09-24T10:00:44.049Z,12.63
2022-09-24T10:03:31.847Z,13.18
2022-09-24T10:06:05.286Z,12.55
2022-09-24T10:08:33.403Z,12.05
2022-09-24T10:11:03.018Z,14.45
2022-09-24T10:13:33.554Z,13.77
2022-09-24T10:16:08.661Z,12.85
2022-09-24T10:18:49.461Z,14.13
2022-09-24T10:21:35.241Z,15.40
2022-09-24T10:24:07.328Z,14.05
2022-09-24T10:26:45.288Z,13.23
2022-09-24T10:29:41.479Z,12.63
2022-09-24T10:32:26.031Z,14.98
2022-09-24T10:35:18.819Z,13.15
2022-09-24T10:37:58.375Z,12.50
2022-09-24T10:40:31.704Z,13.25
2022-09-24T10:43:02.893Z,18.30
2022-09-24T10:45:51.341Z,12.83
2022-09-24T10:48:27.041Z,14.50
2022-09-24T10:51:16.769Z,12.07
2022-09-24T10:54:21.686Z,14.27
2022-09-24T10:56:53.897Z,14.40
2022-09-24T11:00:00.003Z,15.88
2022-09-24T11:02:48.702Z,15.90
2022-09-24T11:05:24.601Z,13.30
2022-09-24T11:08:03.742Z,13.25
2022-09-24T11:10:51.491Z,21.85
2022-09-24T11:13:39.880Z,16.73
2022-09-24T11:16:26.065Z,12.05
2022-09-24T11:19:03.781Z,13.63
2022-09-24T11:21:58.654Z,13.43
2022-09-24T11:25:00.082Z,18.00
2022-09-24T11:28:03.400Z,13.68
2022-09-24T11:30:48.873Z,14.20
2022-09-24T11:33:37.362Z,13.65
2022-09-24T11:36:20.972Z,16.20
2022-09-24T11:38:48.174Z,18.10
2022-09-24T11:41:21.516Z,13.27
2022-09-24T11:44:03.832Z,13.57
2022-09-24T11:46:34.437Z,12.45
2022-09-24T11:49:35.775Z,12.80
2022-09-24T11:52:40.795Z,12.65
2022-09-24T11:55:23.054Z,10.60
2022-09-24T11:57:57.709Z,14.60
2022-09-24T12:00:31.466Z,13.25
2022-09-24T12:03:08.459Z,12.48
2022-09-24T12:05:52.567Z,13.48
2022-09-24T12:08:29.392Z,13.80
2022-09-24T12:10:56.547Z,13.88
2022-09-24T12:13:45.633Z,11.80
2022-09-24T12:16:14.708Z,13.85
2022-09-24T12:18:48.225Z,13.20
2022-09-24T12:21:29.579Z,12.10
2022-09-24T12:24:03.476Z,11.30
2022-09-24T12:26:35.330Z,13.75
2022-09-24T12:32:36.333Z,14.23
2022-09-24T12:35:15.114Z,13.63
2022-09-24T12:37:45.563Z,15.20
2022-09-24T12:40:12.887Z,12.65
2022-09-24T12:42:45.415Z,12.20
2022-09-24T12:45:17.338Z,11.48
2022-09-24T12:48:00.117Z,11.98
2022-09-24T12:50:34.577Z,14.93
2022-09-24T12:53:02.183Z,12.50
2022-09-24T12:55:32.270Z,11.52
2022-09-24T12:58:28.222Z,10.88
2022-09-24T13:01:13.166Z,11.80
2022-09-24T13:03:46.966Z,11.32
2022-09-24T13:06:38.123Z,12.40
2022-09-24T13:09:26.032Z,10.95
2022-09-24T13:12:19.130Z,12.38
2022-09-24T13:15:01.444Z,9.45
2022-09-24T13:17:33.504Z,10.32
2022-09-24T13:20:15.834Z,9.18
2022-09-24T13:22:43.364Z,11.00
2022-09-24T13:25:10.722Z,11.07
2022-09-24T13:27:41.492Z,10.50
2022-09-24T13:30:36.076Z,13.48
2022-09-24T13:33:17.628Z,10.35
2022-09-24T13:36:12.675Z,10.30
2022-09-24T13:39:04.013Z,12.68
2022-09-24T13:42:02.120Z,13.00
2022-09-24T13:44:52.650Z,12.23
2022-09-24T13:47:38.548Z,10.60
2022-09-24T13:50:27.150Z,14.27
2022-09-24T13:53:07.798Z,10.93
2022-09-24T13:55:49.973Z,11.32
2022-09-24T13:58:34.500Z,11.68
2022-09-24T14:01:13.084Z,11.63
2022-09-24T14:03:41.887Z,12.10
2022-09-24T14:06:14.613Z,11.18
2022-09-24T14:08:44.753Z,11.10
2022-09-24T14:11:18.835Z,11.27
2022-09-24T14:13:46.306Z,13.23
2022-09-24T14:16:21.751Z,10.63
2022-09-24T14:18:49.286Z,11.90
2022-09-24T14:21:24.180Z,12.48
2022-09-24T14:24:01.534Z,10.70
2022-09-24T14:26:38.552Z,10.35
2022-09-24T14:29:14.609Z,11.02
2022-09-24T14:31:51.111Z,13.45
2022-09-24T14:34:28.130Z,13.57
2022-09-24T14:36:58.877Z,9.48
2022-09-24T14:39:29.326Z,11.85
2022-09-24T14:41:59.314Z,9.68
2022-09-24T14:44:29.049Z,9.00
2022-09-24T14:46:58.776Z,8.55
2022-09-24T14:49:32.659Z,8.93
2022-09-24T14:52:02.569Z,9.57
2022-09-24T14:54:40.588Z,8.32
2022-09-24T14:57:19.741Z,8.68
2022-09-24T14:59:47.425Z,9.05
2022-09-24T15:02:17.703Z,8.15
2022-09-24T15:04:48.654Z,11.63
2022-09-24T15:07:18.600Z,10.05
2022-09-24T15:09:53.953Z,12.10
2022-09-24T15:12:42.762Z,11.10
2022-09-24T15:15:18.362Z,11.30
2022-09-24T15:17:47.606Z,9.27
2022-09-24T15:20:15.006Z,10.23
2022-09-24T15:22:42.236Z,11.27
2022-09-24T15:25:10.518Z,11.07
2022-09-24T15:27:39.207Z,9.40
2022-09-24T15:30:08.126Z,9.65
2022-09-24T15:32:36.119Z,10.43
2022-09-24T15:35:09.752Z,15.15
2022-09-24T15:37:40.413Z,10.95
2022-09-24T15:40:23.225Z,11.38
2022-09-24T15:42:51.446Z,9.20
2022-09-24T15:45:24.345Z,13.98
2022-09-24T15:47:53.060Z,11.45
2022-09-24T15:50:22.300Z,12.93
2022-09-24T15:52:58.662Z,10.00
2022-09-24T15:55:26.159Z,9.20
2022-09-24T15:57:54.066Z,9.93
2022-09-24T16:00:24.365Z,12.35
2022-09-24T16:02:55.241Z,12.25
2022-09-24T16:05:23.468Z,13.00
2022-09-24T16:07:50.681Z,13.77
2022-09-24T16:10:18.425Z,15.32
2022-09-24T16:12:45.748Z,12.80
2022-09-24T16:15:15.516Z,13.82
2022-09-24T16:17:43.171Z,12.60
2022-09-24T16:20:10.833Z,11.85
2022-09-24T16:22:38.637Z,10.88
2022-09-24T16:25:06.965Z,12.65
2022-09-24T16:27:35.642Z,11.75
2022-09-24T16:30:05.407Z,15.77
2022-09-24T16:32:32.712Z,12.10
2022-09-24T16:35:00.094Z,13.15
2022-09-24T16:37:27.438Z,11.57
2022-09-24T16:39:55.291Z,11.73
2022-09-24T16:42:26.339Z,13.52
2022-09-24T16:44:53.624Z,14.63
2022-09-24T16:47:21.176Z,16.40
2022-09-24T16:49:48.492Z,11.55
2022-09-24T16:52:15.699Z,16.55
2022-09-24T16:54:42.960Z,12.20
2022-09-24T16:57:10.250Z,11.98
2022-09-24T16:59:37.519Z,13.73
2022-09-24T17:02:04.876Z,12.38
2022-09-24T17:04:34.282Z,16.55
2022-09-24T17:07:01.743Z,14.27
2022-09-24T17:09:47.743Z,12.40
2022-09-24T17:12:15.015Z,14.98
2022-09-24T17:14:42.203Z,14.07
2022-09-24T17:17:09.574Z,17.42
2022-09-24T17:19:36.809Z,19.73
2022-09-24T17:22:04.016Z,20.42
2022-09-24T17:24:31.961Z,17.42
2022-09-24T17:26:59.222Z,20.40
2022-09-24T17:29:31.247Z,21.45
2022-09-24T17:31:59.488Z,17.83
2022-09-24T17:34:27.032Z,18.23
2022-09-24T17:36:55.548Z,20.20
2022-09-24T17:39:23.047Z,23.38
2022-09-24T17:41:50.364Z,18.13
2022-09-24T17:44:18.070Z,21.13
2022-09-24T17:46:47.039Z,22.63
2022-09-24T17:49:15.775Z,18.05
2022-09-24T17:51:44.329Z,24.95
2022-09-24T17:54:14.419Z,21.33
2022-09-24T17:56:42.241Z,17.77
2022-09-24T17:59:11.978Z,20.63
2022-09-24T18:01:41.281Z,21.08
2022-09-24T18:04:12.726Z,21.02
2022-09-24T18:06:41.434Z,18.95
2022-09-24T18:09:10.846Z,22.73
2022-09-24T18:11:47.141Z,23.55
2022-09-24T18:14:20.279Z,25.88
2022-09-24T18:16:49.466Z,21.83
2022-09-24T18:19:17.613Z,22.95
2022-09-24T18:21:46.423Z,22.88
2022-09-24T18:24:14.683Z,20.88
2022-09-24T18:26:42.128Z,23.35
2022-09-24T18:29:15.812Z,23.08
2022-09-24T18:31:44.894Z,24.33
2022-09-24T18:34:14.864Z,23.98
2022-09-24T18:36:44.107Z,24.63
2022-09-24T18:39:13.845Z,23.23
2022-09-24T18:41:42.181Z,26.30
2022-09-24T18:44:10.642Z,23.67
2022-09-24T18:46:37.957Z,25.63
2022-09-24T18:49:06.534Z,30.75
2022-09-24T18:51:37.358Z,26.63
2022-09-24T18:54:12.632Z,22.55
2022-09-24T18:56:40.517Z,26.83
2022-09-24T18:59:19.846Z,23.17
2022-09-24T19:01:48.743Z,23.75
2022-09-24T19:04:17.205Z,26.92
2022-09-24T19:06:48.182Z,25.77
2022-09-24T19:09:17.580Z,26.00
2022-09-24T19:11:45.717Z,29.77
2022-09-24T19:14:18.153Z,26.17
2022-09-24T19:16:46.015Z,22.33
2022-09-24T19:19:13.320Z,31.20
2022-09-24T19:21:42.256Z,29.75
2022-09-24T19:24:10.052Z,28.15
2022-09-24T19:26:38.062Z,27.80
2022-09-24T19:29:05.817Z,25.50
2022-09-24T19:31:51.600Z,27.85
2022-09-24T19:34:20.803Z,27.77
2022-09-24T19:36:48.131Z,28.20
2022-09-24T19:39:16.895Z,30.35
2022-09-24T19:41:44.620Z,34.15
2022-09-24T19:44:12.598Z,37.72
2022-09-24T19:46:41.173Z,33.78
2022-09-24T19:49:09.012Z,33.90
2022-09-24T19:51:36.925Z,32.45
2022-09-24T19:54:07.078Z,26.95
2022-09-24T19:56:36.067Z,28.85
2022-09-24T19:59:04.698Z,33.95
2022-09-24T20:01:33.587Z,26.88
2022-09-24T20:04:05.225Z,28.00
2022-09-24T20:06:34.061Z,32.08
2022-09-24T20:09:01.727Z,31.60
2022-09-24T20:11:32.630Z,34.35
2022-09-24T20:14:01.738Z,33.20
2022-09-24T20:16:32.734Z,32.83
2022-09-24T20:19:02.078Z,31.42
2022-09-24T20:21:34.832Z,26.92
2022-09-24T20:24:05.675Z,27.83
2022-09-24T20:26:52.032Z,26.17
2022-09-24T20:29:20.291Z,30.23
2022-09-24T20:31:52.970Z,27.08
2022-09-24T20:34:34.602Z,27.10
2022-09-24T20:37:04.498Z,29.10
2022-09-24T20:39:32.395Z,29.77
2022-09-24T20:42:04.045Z,26.15
2022-09-24T20:44:34.009Z,31.67
2022-09-24T20:47:01.538Z,28.30
2022-09-24T20:49:29.991Z,29.50
2022-09-24T20:51:58.125Z,31.08
2022-09-24T20:54:28.352Z,33.20
2022-09-24T20:56:56.138Z,28.77
2022-09-24T20:59:25.685Z,30.33
2022-09-24T21:01:53.894Z,30.23
2022-09-24T21:04:22.565Z,30.92
2022-09-24T21:06:50.497Z,30.92
2022-09-24T21:09:18.031Z,28.42
2022-09-24T21:11:45.338Z,30.30
2022-09-24T21:14:12.866Z,29.10
2022-09-24T21:16:40.670Z,28.08
2022-09-24T21:19:08.146Z,25.90
2022-09-24T21:21:39.150Z,27.15
2022-09-24T21:24:10.295Z,28.07
2022-09-24T21:26:40.898Z,29.42
2022-09-24T21:29:16.844Z,29.90
2022-09-24T21:31:46.338Z,28.48
2022-09-24T21:34:15.766Z,25.83
2022-09-24T21:36:45.928Z,31.10
2022-09-24T21:39:17.732Z,29.13
2022-09-24T21:41:47.186Z,29.48
2022-09-24T21:44:14.635Z,30.33
2022-09-24T21:46:43.968Z,26.90
2022-09-24T21:49:12.142Z,30.67
2022-09-24T21:51:39.820Z,28.58
2022-09-24T21:54:09.506Z,29.40
2022-09-24T21:56:37.544Z,29.50
2022-09-24T21:59:27.885Z,28.27
2022-09-24T22:01:55.958Z,26.73
2022-09-24T22:04:23.289Z,29.95
2022-09-24T22:06:51.291Z,27.38
2022-09-24T22:09:18.949Z,32.20
2022-09-24T22:11:47.125Z,30.50
2022-09-24T22:14:15.217Z,32.42
2022-09-24T22:16:42.768Z,32.10
2022-09-24T22:19:10.436Z,32.40
2022-09-24T22:21:37.937Z,31.45
2022-09-24T22:24:05.769Z,33.08
2022-09-24T22:26:33.615Z,30.52
2022-09-24T22:29:02.187Z,28.58
2022-09-24T22:31:29.599Z,30.42
2022-09-24T22:34:15.285Z,33.17
2022-09-24T22:36:43.033Z,32.38
2022-09-24T22:39:11.199Z,31.23
2022-09-24T22:41:40.267Z,28.15
2022-09-24T22:44:07.731Z,26.13
2022-09-24T22:46:36.533Z,27.05
2022-09-24T22:49:06.012Z,29.67
2022-09-24T22:51:34.087Z,28.88
2022-09-24T22:54:01.676Z,26.73
2022-09-24T22:56:30.203Z,31.52
2022-09-24T22:59:00.018Z,28.08
2022-09-24T23:01:42.149Z,28.58
2022-09-24T23:06:38.362Z,28.85
2022-09-24T23:09:06.259Z,29.25
2022-09-24T23:11:35.922Z,28.35
2022-09-24T23:14:11.235Z,28.20
2022-09-24T23:16:39.135Z,29.67
2022-09-24T23:19:13.247Z,28.00
2022-09-24T23:21:40.913Z,31.33
2022-09-24T23:24:19.344Z,30.98
2022-09-24T23:26:47.290Z,30.83
2022-09-24T23:29:15.231Z,32.50
2022-09-24T23:31:42.797Z,31.35
2022-09-24T23:34:13.465Z,28.33
2022-09-24T23:36:41.180Z,28.55
2022-09-24T23:39:08.437Z,27.58
2022-09-24T23:41:35.706Z,30.20
2022-09-24T23:44:03.505Z,29.67
2022-09-24T23:46:30.837Z,30.60
2022-09-24T23:48:58.107Z,28.52
2022-09-24T23:51:28.517Z,31.77
2022-09-24T23:53:55.823Z,44.33
2022-09-24T23:56:23.303Z,36.05
2022-09-24T23:58:50.933Z,32.85
